Time;durP1;ratioP1;P1;durP2;ratioP2;P2;SDS_P1;SDS_P2;PMS_P1;PMS_P2;Temp;Humidity;BMP_temperature;BMP_pressure;BME280_temperature;BME280_humidity;BME280_pressure;Samples;Min_cycle;Max_cycle;Signal;HPM_P1;HPM_P2
2021/04/05 00:00:25;;;;;;;50.97;18.52;;;;;;;5.81;89.53;100847.16;4988920;28;20361;-78
2021/04/05 00:02:51;;;;;;;45.00;19.60;;;;;;;5.85;89.73;100838.13;4990665;28;20057;-77
2021/04/05 00:05:19;;;;;;;50.05;21.45;;;;;;;5.83;89.78;100829.31;4989205;28;20034;-77
2021/04/05 00:07:46;;;;;;;44.28;18.98;;;;;;;5.94;89.87;100829.75;4970746;28;20670;-79
2021/04/05 00:10:22;;;;;;;56.15;18.85;;;;;;;5.96;89.63;100806.56;5000174;28;20038;-79
2021/04/05 00:12:49;;;;;;;52.58;18.00;;;;;;;5.93;89.61;100791.56;4984591;28;20046;-79
2021/04/05 00:15:15;;;;;;;44.92;18.85;;;;;;;5.85;89.85;100787.50;4983159;28;20165;-78
2021/04/05 00:17:41;;;;;;;42.10;18.67;;;;;;;5.86;90.17;100778.59;4983505;28;20038;-77
2021/04/05 00:20:32;;;;;;;35.50;18.55;;;;;;;5.85;90.32;100775.06;4972000;28;20034;-78
2021/04/05 00:22:57;;;;;;;43.75;19.05;;;;;;;5.93;89.83;100770.25;5012121;28;20138;-78
2021/04/05 00:25:23;;;;;;;53.33;18.70;;;;;;;5.83;90.22;100773.38;4965651;28;20112;-79
2021/04/05 00:27:48;;;;;;;43.83;19.10;;;;;;;5.84;90.64;100757.34;4985108;28;20030;-77
2021/04/05 00:30:17;;;;;;;46.63;18.52;;;;;;;5.90;90.39;100753.56;4984753;28;20047;-79
2021/04/05 00:32:44;;;;;;;50.67;18.45;;;;;;;5.89;90.21;100739.38;4988768;28;20360;-79
2021/04/05 00:35:10;;;;;;;47.53;19.10;;;;;;;5.96;90.36;100731.97;4983735;28;20038;-77
2021/04/05 00:37:36;;;;;;;44.85;19.50;;;;;;;5.92;90.57;100735.72;5000242;28;20070;-78
2021/04/05 00:40:06;;;;;;;44.72;19.05;;;;;;;5.85;91.02;100734.22;4983111;28;20070;-80
2021/04/05 00:42:32;;;;;;;53.92;19.45;;;;;;;5.91;91.29;100723.34;4963930;28;20030;-77
2021/04/05 00:44:57;;;;;;;44.90;19.15;;;;;;;6.04;90.62;100719.19;5013008;28;20038;-78
2021/04/05 00:47:23;;;;;;;44.70;17.95;;;;;;;6.02;90.58;100705.91;4998465;28;20500;-78
2021/04/05 00:49:48;;;;;;;49.03;18.90;;;;;;;6.02;90.67;100699.72;4998002;28;20076;-79
2021/04/05 00:52:15;;;;;;;49.78;19.95;;;;;;;5.98;90.61;100692.81;4985075;28;20034;-77
2021/04/05 00:54:40;;;;;;;44.58;18.52;;;;;;;6.05;90.56;100697.78;4999745;28;20069;-77
2021/04/05 00:57:06;;;;;;;48.15;19.85;;;;;;;6.14;90.16;100698.28;5006903;28;20039;-78
2021/04/05 00:59:32;;;;;;;52.50;19.80;;;;;;;6.07;90.30;100687.06;4989169;28;20033;-78
2021/04/05 01:01:57;;;;;;;48.75;20.23;;;;;;;6.03;90.64;100680.16;4972455;28;20134;-76
2021/04/05 01:04:23;;;;;;;48.55;18.65;;;;;;;6.09;90.32;100679.88;5000970;28;20045;-76
2021/04/05 01:06:48;;;;;;;52.35;18.98;;;;;;;6.14;90.23;100666.31;4987353;28;20068;-76
2021/04/05 01:09:14;;;;;;;45.88;18.77;;;;;;;6.19;90.08;100654.50;4986096;28;20093;-76
2021/04/05 01:11:39;;;;;;;56.72;19.55;;;;;;;6.09;90.69;100643.41;4965076;28;20034;-76
2021/04/05 01:14:05;;;;;;;47.47;18.88;;;;;;;6.09;90.44;100639.88;4984823;28;20050;-76
2021/04/05 01:16:31;;;;;;;55.80;20.75;;;;;;;6.05;91.12;100633.81;4985338;28;20033;-77
2021/04/05 01:18:58;;;;;;;50.85;19.52;;;;;;;6.04;90.93;100623.25;4984777;28;20544;-76
2021/04/05 01:21:25;;;;;;;43.38;19.48;;;;;;;6.00;90.86;100627.00;4986075;28;20058;-76
2021/04/05 01:23:51;;;;;;;46.90;19.55;;;;;;;6.07;90.86;100626.63;4984629;28;20037;-77
2021/04/05 01:26:41;;;;;;;47.50;20.30;;;;;;;6.08;90.96;100624.84;4981501;28;20651;-77
2021/04/05 01:29:07;;;;;;;51.60;20.35;;;;;;;6.09;91.10;100622.09;4985018;28;20042;-76
2021/04/05 01:31:33;;;;;;;60.13;21.35;;;;;;;6.23;90.61;100610.78;4989823;28;20104;-76
2021/04/05 01:33:58;;;;;;;48.50;20.25;;;;;;;6.11;90.54;100608.69;4985717;28;20046;-76
2021/04/05 01:36:24;;;;;;;56.38;21.33;;;;;;;6.18;90.51;100599.47;4980725;28;20118;-77
2021/04/05 01:38:52;;;;;;;54.00;21.27;;;;;;;6.21;90.23;100599.34;5016600;28;20117;-76
2021/04/05 01:41:31;;;;;;;51.78;20.35;;;;;;;6.17;90.37;100587.09;4986370;28;20034;-77
2021/04/05 01:43:58;;;;;;;57.83;21.45;;;;;;;6.27;89.90;100583.03;4986062;28;20034;-77
2021/04/05 01:46:27;;;;;;;57.65;22.38;;;;;;;6.24;89.52;100576.97;4976929;28;20038;-77
2021/04/05 01:48:53;;;;;;;55.17;21.65;;;;;;;6.26;89.77;100569.78;4962677;28;20378;-77
2021/04/05 01:51:21;;;;;;;55.38;23.40;;;;;;;6.19;90.22;100563.88;4985295;28;20049;-75
2021/04/05 01:53:48;;;;;;;57.05;23.35;;;;;;;6.28;89.88;100547.47;4985346;28;20123;-77
2021/04/05 01:56:16;;;;;;;64.30;25.45;;;;;;;6.38;89.26;100554.06;4982438;28;20116;-76
2021/04/05 01:58:44;;;;;;;64.75;23.75;;;;;;;6.32;89.40;100538.38;4984660;28;20077;-77
2021/04/05 02:01:13;;;;;;;59.47;24.70;;;;;;;6.19;89.81;100537.25;4985255;28;20189;-76
2021/04/05 02:03:40;;;;;;;56.08;23.75;;;;;;;6.23;90.07;100540.63;4973321;28;20085;-76
2021/04/05 02:06:16;;;;;;;55.00;25.27;;;;;;;6.33;89.80;100533.91;5009743;28;20042;-77
2021/04/05 02:08:43;;;;;;;64.38;25.27;;;;;;;6.35;89.65;100537.34;4983353;28;20066;-76
2021/04/05 02:11:15;;;;;;;60.42;26.15;;;;;;;6.25;89.95;100530.75;4982616;28;20038;-76
2021/04/05 02:13:44;;;;;;;66.70;25.70;;;;;;;6.37;89.59;100520.34;4963997;28;20058;-77
2021/04/05 02:16:15;;;;;;;59.92;25.88;;;;;;;6.36;89.81;100515.94;4973502;28;20126;-77
2021/04/05 02:18:41;;;;;;;55.47;24.38;;;;;;;6.38;89.69;100506.06;4985831;28;20120;-76
2021/04/05 02:21:11;;;;;;;64.22;25.08;;;;;;;6.37;89.81;100499.00;4983819;28;20878;-78
2021/04/05 02:23:37;;;;;;;64.00;24.95;;;;;;;6.33;89.90;100480.59;4984351;28;20030;-76
2021/04/05 02:26:07;;;;;;;73.28;26.95;;;;;;;6.41;90.10;100459.75;4968673;28;20564;-76
2021/04/05 02:28:34;;;;;;;56.03;23.48;;;;;;;6.37;89.98;100456.34;4965294;28;20129;-76
2021/04/05 02:31:00;;;;;;;54.92;23.15;;;;;;;6.46;89.73;100455.91;4968861;28;20564;-77
2021/04/05 02:33:26;;;;;;;59.88;24.48;;;;;;;6.32;90.03;100445.06;4985514;28;20054;-76
2021/04/05 02:35:52;;;;;;;56.72;22.00;;;;;;;6.40;90.08;100442.88;5012053;28;20030;-75
2021/04/05 02:38:18;;;;;;;54.80;22.17;;;;;;;6.41;90.25;100438.41;4998021;28;20425;-76
2021/04/05 02:40:44;;;;;;;62.30;23.92;;;;;;;6.35;90.49;100436.94;4979085;28;20409;-76
2021/04/05 02:43:12;;;;;;;61.03;21.92;;;;;;;6.41;90.22;100435.75;4965830;28;20040;-76
2021/04/05 02:45:39;;;;;;;53.17;20.27;;;;;;;6.39;90.23;100440.28;4983722;28;20034;-76
2021/04/05 02:48:07;;;;;;;52.80;20.80;;;;;;;6.41;90.20;100449.94;4983323;28;20050;-76
2021/04/05 02:50:32;;;;;;;64.10;20.30;;;;;;;6.43;89.99;100453.38;4962064;28;20030;-76
2021/04/05 02:53:03;;;;;;;45.03;21.17;;;;;;;6.38;90.95;100439.44;5000148;28;20038;-76
2021/04/05 02:55:29;;;;;;;45.55;19.67;;;;;;;6.48;90.07;100438.00;5006417;28;20034;-75
2021/04/05 02:57:56;;;;;;;49.17;20.77;;;;;;;6.47;89.90;100435.44;4976497;28;20428;-76
2021/04/05 03:00:22;;;;;;;60.45;20.45;;;;;;;6.43;90.37;100434.72;4984534;28;20057;-76
2021/04/05 03:02:51;;;;;;;45.70;19.50;;;;;;;6.42;90.42;100432.97;4979270;28;20484;-76
2021/04/05 03:05:21;;;;;;;54.85;20.33;;;;;;;6.42;90.52;100421.44;4979108;28;20038;-76
2021/04/05 03:07:48;;;;;;;55.75;20.00;;;;;;;6.30;90.39;100417.63;4980533;28;20058;-76
2021/04/05 03:10:16;;;;;;;44.95;18.85;;;;;;;6.44;90.24;100415.13;4984460;28;20030;-75
2021/04/05 03:12:43;;;;;;;48.05;19.30;;;;;;;6.41;90.48;100420.63;4985126;28;20018;-77
2021/04/05 03:15:11;;;;;;;51.63;20.42;;;;;;;6.30;90.99;100417.63;4983741;28;20034;-76
2021/04/05 03:17:38;;;;;;;48.97;19.67;;;;;;;6.34;90.62;100419.22;4976799;28;20029;-76
2021/04/05 03:20:09;;;;;;;52.03;19.50;;;;;;;6.40;90.69;100413.56;4987664;28;20027;-77
2021/04/05 03:22:38;;;;;;;47.95;18.90;;;;;;;6.38;90.40;100414.56;4972573;28;20064;-76
2021/04/05 03:25:04;;;;;;;47.85;19.88;;;;;;;6.28;91.47;100406.19;4985049;28;20031;-76
2021/04/05 03:27:29;;;;;;;44.67;17.48;;;;;;;6.36;91.05;100400.44;4969955;28;20038;-76
2021/04/05 03:29:59;;;;;;;47.80;17.58;;;;;;;6.32;91.16;100394.44;4970822;28;20030;-77
2021/04/05 03:32:28;;;;;;;48.97;18.95;;;;;;;6.38;91.21;100394.09;5011908;28;20042;-76
2021/04/05 03:34:57;;;;;;;47.28;18.95;;;;;;;6.45;90.67;100379.53;5018815;28;20886;-76
2021/04/05 03:37:25;;;;;;;45.75;19.17;;;;;;;6.36;91.07;100379.97;4997655;28;20661;-76
2021/04/05 03:39:51;;;;;;;45.83;18.33;;;;;;;6.43;90.78;100384.06;4970645;28;20034;-77
2021/04/05 03:42:24;;;;;;;52.92;18.27;;;;;;;6.41;91.26;100388.63;4988119;28;20113;-76
2021/04/05 03:44:59;;;;;;;54.22;18.27;;;;;;;6.40;91.47;100378.91;4985985;28;20084;-76
2021/04/05 03:47:38;;;;;;;49.30;17.70;;;;;;;6.48;90.57;100374.00;4966489;28;20034;-75
2021/04/05 03:50:33;;;;;;;44.17;17.90;;;;;;;6.45;91.08;100362.66;4986309;28;20188;-77
2021/04/05 03:53:10;;;;;;;42.28;16.45;;;;;;;6.43;91.20;100354.72;4988580;28;20038;-77
2021/04/05 03:55:39;;;;;;;49.40;18.05;;;;;;;6.39;91.37;100342.53;4980980;28;20038;-76
2021/04/05 03:58:08;;;;;;;46.38;16.75;;;;;;;6.45;91.61;100342.19;4986354;28;20043;-77
2021/04/05 04:00:36;;;;;;;50.72;18.38;;;;;;;6.44;91.71;100328.94;4969881;28;20065;-75
2021/04/05 04:03:07;;;;;;;38.75;18.17;;;;;;;6.37;91.97;100323.06;4968518;28;20058;-77
2021/04/05 04:05:40;;;;;;;49.90;17.30;;;;;;;6.40;92.35;100312.25;4986069;28;20266;-76
2021/04/05 04:10:54;;;;;;;47.17;18.15;;;;;;;6.46;91.71;100311.94;4987156;28;20100;-77
2021/04/05 04:13:20;;;;;;;53.85;17.08;;;;;;;6.47;92.16;100303.00;4976717;28;20066;-76
2021/04/05 04:15:51;;;;;;;50.50;16.88;;;;;;;6.46;92.56;100295.94;4968055;28;20089;-75
2021/04/05 04:18:18;;;;;;;41.65;18.17;;;;;;;6.46;92.71;100301.28;5012841;28;20030;-76
2021/04/05 04:20:44;;;;;;;43.40;17.52;;;;;;;6.43;93.84;100288.09;4983892;28;20038;-76
2021/04/05 04:23:12;;;;;;;47.45;18.42;;;;;;;6.54;93.51;100289.34;4983960;28;20093;-77
2021/04/05 04:25:38;;;;;;;51.47;17.83;;;;;;;6.48;93.58;100283.34;4986780;28;20536;-76
2021/04/05 04:28:04;;;;;;;49.65;16.40;;;;;;;6.47;93.85;100271.00;4981498;28;20037;-75
2021/04/05 04:30:33;;;;;;;41.63;17.08;;;;;;;6.44;94.23;100270.28;4970380;28;20125;-77
2021/04/05 04:33:00;;;;;;;40.83;18.17;;;;;;;6.33;94.89;100268.22;4964897;28;20713;-76
2021/04/05 04:35:28;;;;;;;45.85;19.55;;;;;;;6.45;95.09;100264.03;4984193;28;20133;-76
2021/04/05 04:37:53;;;;;;;44.47;17.63;;;;;;;6.40;95.30;100266.94;4967741;28;20118;-76
2021/04/05 04:40:27;;;;;;;54.80;17.80;;;;;;;6.51;94.95;100258.34;4969551;28;20523;-76
2021/04/05 04:42:56;;;;;;;55.90;17.70;;;;;;;6.46;95.44;100258.59;4985100;28;20034;-76
2021/04/05 04:45:23;;;;;;;52.60;19.13;;;;;;;6.49;95.87;100258.44;4967686;28;20045;-76
2021/04/05 04:47:51;;;;;;;46.78;19.08;;;;;;;6.52;95.58;100256.56;4963476;28;20034;-76
2021/04/05 04:50:17;;;;;;;48.50;18.90;;;;;;;6.47;96.05;100252.34;5001042;28;20038;-76
2021/04/05 04:52:43;;;;;;;52.35;18.98;;;;;;;6.44;96.26;100244.50;4964899;28;20290;-75
2021/04/05 04:55:09;;;;;;;48.17;19.77;;;;;;;6.47;96.53;100249.69;4981271;28;20038;-75
2021/04/05 04:57:35;;;;;;;50.92;19.42;;;;;;;6.47;96.54;100239.00;4983196;28;20511;-76
2021/04/05 05:00:03;;;;;;;49.50;20.98;;;;;;;6.42;97.50;100246.38;4970896;28;20034;-76
2021/04/05 05:02:30;;;;;;;54.35;20.45;;;;;;;6.39;97.29;100251.88;4968551;28;20039;-76
2021/04/05 05:04:56;;;;;;;54.72;21.67;;;;;;;6.42;97.13;100245.50;4981808;28;20034;-76
2021/04/05 05:07:24;;;;;;;57.92;19.05;;;;;;;6.45;97.57;100243.56;4984422;28;20096;-76
2021/04/05 05:09:49;;;;;;;53.65;21.10;;;;;;;6.42;97.59;100224.19;4977582;28;20596;-76
2021/04/05 05:12:15;;;;;;;52.00;20.98;;;;;;;6.47;97.11;100223.00;4979358;28;20042;-77
2021/04/05 05:14:41;;;;;;;61.45;21.48;;;;;;;6.49;97.45;100220.25;4965500;28;20040;-76
2021/04/05 05:17:07;;;;;;;59.35;21.50;;;;;;;6.45;97.39;100216.91;4981992;28;20033;-76
2021/04/05 05:19:36;;;;;;;55.00;23.02;;;;;;;6.44;97.58;100216.97;4984290;28;20081;-76
2021/04/05 05:22:04;;;;;;;61.17;21.38;;;;;;;6.36;98.13;100220.06;4981092;28;20445;-77
2021/04/05 05:24:31;;;;;;;55.90;20.35;;;;;;;6.39;98.27;100206.56;4969540;28;20034;-76
2021/04/05 05:26:57;;;;;;;67.75;22.00;;;;;;;6.45;98.27;100214.22;4985863;28;20049;-76
2021/04/05 05:29:25;;;;;;;50.35;21.05;;;;;;;6.40;98.04;100210.97;4984018;28;20026;-76
2021/04/05 05:31:50;;;;;;;55.10;21.63;;;;;;;6.45;98.16;100203.56;5014064;28;20037;-77
2021/04/05 05:34:19;;;;;;;52.08;20.70;;;;;;;6.37;98.37;100194.25;4983524;28;20042;-76
2021/04/05 05:36:45;;;;;;;55.97;22.35;;;;;;;6.47;98.48;100184.84;4984666;28;20038;-76
2021/04/05 05:39:13;;;;;;;51.95;22.77;;;;;;;6.47;98.31;100196.34;4962047;28;20682;-77
2021/04/05 05:42:13;;;;;;;57.28;21.65;;;;;;;6.49;98.83;100205.09;4986779;28;20137;-76
2021/04/05 05:44:51;;;;;;;55.55;21.35;;;;;;;6.46;99.18;100188.44;4978796;28;20046;-77
2021/04/05 05:47:22;;;;;;;55.38;21.90;;;;;;;6.36;99.22;100182.75;4983676;28;20037;-76
2021/04/05 05:50:17;;;;;;;63.63;21.65;;;;;;;6.48;99.51;100182.06;4997865;28;20460;-76
2021/04/05 05:53:04;;;;;;;63.85;22.10;;;;;;;6.42;99.50;100182.41;4974961;28;20402;-78
2021/04/05 05:55:52;;;;;;;55.53;23.42;;;;;;;6.41;99.74;100180.69;5012793;28;20041;-78
2021/04/05 05:58:28;;;;;;;57.33;22.23;;;;;;;6.47;100.00;100184.84;4973995;28;20038;-77
2021/04/05 06:01:10;;;;;;;63.28;21.95;;;;;;;6.44;100.00;100179.66;4981810;28;20034;-75
2021/04/05 06:03:48;;;;;;;59.93;23.37;;;;;;;6.48;100.00;100167.91;4986181;28;20030;-77
2021/04/05 06:06:25;;;;;;;54.22;22.20;;;;;;;6.50;100.00;100157.97;4978461;28;20034;-77
2021/04/05 06:09:20;;;;;;;63.50;22.77;;;;;;;6.48;100.00;100166.06;4986515;28;20477;-77
2021/04/05 06:11:59;;;;;;;68.03;23.90;;;;;;;6.45;100.00;100165.38;4982173;28;20508;-77
2021/04/05 06:15:09;;;;;;;60.22;25.77;;;;;;;6.43;100.00;100146.81;4984232;28;20038;-76
2021/04/05 06:17:52;;;;;;;57.20;23.80;;;;;;;6.48;100.00;100144.72;4953298;28;20058;-77
2021/04/05 06:20:23;;;;;;;61.85;22.88;;;;;;;6.57;100.00;100147.84;4990110;28;20034;-77
2021/04/05 06:23:06;;;;;;;58.17;24.30;;;;;;;6.49;100.00;100140.25;5018613;28;20030;-76
2021/04/05 06:25:38;;;;;;;62.15;24.92;;;;;;;6.60;100.00;100137.88;4985540;28;20572;-77
2021/04/05 06:28:34;;;;;;;66.50;23.10;;;;;;;6.61;100.00;100144.03;4964268;28;20069;-77
2021/04/05 06:31:06;;;;;;;53.70;23.45;;;;;;;6.55;100.00;100139.06;4996034;28;20129;-77
2021/04/05 06:33:37;;;;;;;57.57;24.80;;;;;;;6.58;100.00;100134.41;4981841;28;20129;-77
2021/04/05 06:36:33;;;;;;;67.65;23.83;;;;;;;6.63;100.00;100127.00;4998040;28;20070;-77
2021/04/05 06:39:04;;;;;;;64.32;23.13;;;;;;;6.66;100.00;100126.00;4999281;28;20042;-78
2021/04/05 06:41:37;;;;;;;58.50;24.88;;;;;;;6.68;100.00;100126.75;5011483;28;20042;-77
2021/04/05 06:44:09;;;;;;;69.70;25.27;;;;;;;6.68;100.00;100129.41;4985088;28;20118;-76
2021/04/05 06:46:59;;;;;;;59.60;25.27;;;;;;;6.73;100.00;100114.00;4999364;28;20038;-77
2021/04/05 06:49:47;;;;;;;66.15;24.80;;;;;;;6.76;100.00;100116.50;5001146;28;20042;-76
2021/04/05 06:52:38;;;;;;;61.63;25.13;;;;;;;6.75;100.00;100112.09;4999699;28;20035;-77
2021/04/05 06:55:28;;;;;;;66.55;24.55;;;;;;;6.79;100.00;100102.97;4998566;28;20038;-78
2021/04/05 06:58:23;;;;;;;56.47;24.48;;;;;;;6.86;100.00;100102.53;4989747;28;20121;-78
2021/04/05 07:01:08;;;;;;;68.00;28.08;;;;;;;6.94;100.00;100090.53;4998389;28;20043;-77
2021/04/05 07:03:58;;;;;;;107.38;38.38;;;;;;;6.92;100.00;100087.97;4985116;28;20335;-78
2021/04/05 07:06:40;;;;;;;84.78;34.50;;;;;;;6.97;100.00;100085.91;4995685;28;20034;-80
2021/04/05 07:09:12;;;;;;;124.20;48.80;;;;;;;7.04;100.00;100089.03;4966142;28;20049;-78
2021/04/05 07:12:09;;;;;;;143.73;54.67;;;;;;;7.09;100.00;100077.16;5011846;28;20293;-79
2021/04/05 07:15:00;;;;;;;144.23;54.30;;;;;;;7.15;100.00;100073.25;4987711;28;20096;-79
2021/04/05 07:17:33;;;;;;;89.35;38.60;;;;;;;7.10;100.00;100073.50;5019679;28;20088;-78
2021/04/05 07:20:07;;;;;;;93.88;38.45;;;;;;;7.16;100.00;100073.16;4969646;28;20034;-79
2021/04/05 07:22:39;;;;;;;74.05;34.10;;;;;;;7.20;100.00;100063.16;5002318;28;20492;-78
2021/04/05 07:25:08;;;;;;;72.55;34.75;;;;;;;7.11;100.00;100069.91;4984861;28;20038;-77
2021/04/05 07:27:40;;;;;;;72.72;32.97;;;;;;;7.14;100.00;100071.53;4967842;28;20421;-78
2021/04/05 07:30:13;;;;;;;74.28;28.50;;;;;;;7.11;100.00;100085.91;4981707;28;20070;-78
2021/04/05 07:33:16;;;;;;;60.15;27.55;;;;;;;7.27;100.00;100081.38;4987558;28;20026;-77
2021/04/05 07:35:58;;;;;;;65.18;27.55;;;;;;;7.16;100.00;100089.16;4980604;28;20034;-78
2021/04/05 07:38:30;;;;;;;61.33;26.38;;;;;;;7.14;100.00;100096.41;4987619;28;20560;-79
2021/04/05 07:41:30;;;;;;;67.83;26.17;;;;;;;7.17;100.00;100108.69;4982602;28;20042;-78
2021/04/05 07:44:26;;;;;;;62.83;26.52;;;;;;;7.06;100.00;100133.38;4986079;28;20038;-77
2021/04/05 07:46:59;;;;;;;36.28;13.93;;;;;;;6.79;100.00;100146.50;4982028;28;20043;-78
2021/04/05 07:49:29;;;;;;;24.25;9.77;;;;;;;6.63;100.00;100152.81;4985809;28;20042;-78
2021/04/05 07:52:46;;;;;;;19.55;7.40;;;;;;;6.52;100.00;100157.91;4982150;28;20058;-77
2021/04/05 07:55:12;;;;;;;24.23;8.43;;;;;;;6.47;100.00;100163.50;4974109;28;20062;-77
2021/04/05 07:58:08;;;;;;;16.92;7.68;;;;;;;6.34;100.00;100167.78;4984981;28;20053;-77
2021/04/05 08:00:53;;;;;;;15.23;5.45;;;;;;;6.16;100.00;100168.81;5003507;28;20048;-78
2021/04/05 08:03:36;;;;;;;16.40;4.95;;;;;;;6.13;100.00;100171.63;4996749;28;20070;-78
2021/04/05 08:06:05;;;;;;;10.88;4.35;;;;;;;6.07;100.00;100180.81;4983322;28;20038;-79
2021/04/05 08:08:36;;;;;;;10.35;3.65;;;;;;;6.07;100.00;100183.47;4970399;28;20038;-77
2021/04/05 08:11:23;;;;;;;12.15;3.42;;;;;;;6.04;100.00;100181.00;4987266;28;20041;-79
2021/04/05 08:14:26;;;;;;;15.23;4.47;;;;;;;6.04;100.00;100181.88;4970304;28;20042;-77
2021/04/05 08:16:58;;;;;;;10.38;3.22;;;;;;;6.03;100.00;100187.28;4977354;28;20034;-77
2021/04/05 08:19:29;;;;;;;6.95;3.00;;;;;;;6.03;100.00;100188.13;5016683;28;20042;-77
2021/04/05 08:21:57;;;;;;;9.48;3.42;;;;;;;5.99;100.00;100205.19;4986031;28;20089;-76
2021/04/05 08:24:41;;;;;;;12.38;3.58;;;;;;;5.90;100.00;100207.50;4996540;28;20034;-78
2021/04/05 08:27:16;;;;;;;10.30;3.30;;;;;;;5.90;100.00;100212.84;5011649;28;20041;-77
2021/04/05 08:29:53;;;;;;;12.07;4.10;;;;;;;5.89;100.00;100213.78;4996272;28;20034;-76
2021/04/05 08:35:42;;;;;;;16.77;3.30;;;;;;;5.92;100.00;100216.28;5131190;27;20363;-70
2021/04/05 08:38:43;;;;;;;8.90;2.60;;;;;;;5.95;100.00;100224.97;5129170;27;20499;-70
2021/04/05 08:41:29;;;;;;;11.57;2.30;;;;;;;5.96;100.00;100231.16;5123249;27;20035;-70
2021/04/05 08:44:00;;;;;;;8.27;2.60;;;;;;;5.98;100.00;100231.94;5129314;27;20122;-69
2021/04/05 08:46:35;;;;;;;9.27;2.85;;;;;;;6.04;100.00;100228.97;5129916;27;20076;-71
2021/04/05 08:49:05;;;;;;;7.97;2.70;;;;;;;6.00;100.00;100233.56;5117544;27;20404;-71
2021/04/05 08:51:45;;;;;;;4.93;2.30;;;;;;;5.96;100.00;100241.81;5119947;27;20061;-71
2021/04/05 08:54:14;;;;;;;8.00;2.72;;;;;;;5.97;100.00;100243.53;5117781;27;20042;-71
2021/04/05 08:56:48;;;;;;;9.27;2.00;;;;;;;5.93;100.00;100249.94;5119263;27;20031;-71
2021/04/05 08:59:22;;;;;;;7.38;1.88;;;;;;;5.98;100.00;100262.13;5118495;27;20343;-70
2021/04/05 09:01:54;;;;;;;10.20;2.30;;;;;;;5.89;100.00;100283.03;5116207;27;20036;-70
2021/04/05 09:04:23;;;;;;;11.52;2.47;;;;;;;5.69;100.00;100270.69;5122716;27;20030;-70
2021/04/05 09:07:08;;;;;;;10.52;3.85;;;;;;;5.46;100.00;100290.50;5123705;27;20059;-70
2021/04/05 09:09:35;;;;;;;5.78;1.27;;;;;;;5.44;100.00;100292.38;5123817;27;20423;-71
2021/04/05 09:12:04;;;;;;;4.32;1.13;;;;;;;5.41;100.00;100305.00;5130341;27;20027;-70
2021/04/05 09:14:38;;;;;;;9.30;1.10;;;;;;;5.11;100.00;100324.19;5111494;27;20026;-71
2021/04/05 09:17:40;;;;;;;12.32;3.15;;;;;;;5.03;100.00;100329.00;5113585;27;20085;-71
2021/04/05 09:20:25;;;;;;;8.40;1.13;;;;;;;4.98;100.00;100346.13;5116330;27;20039;-70
2021/04/05 09:23:31;;;;;;;16.38;1.85;;;;;;;4.78;100.00;100345.25;5119567;27;20028;-70
2021/04/05 09:26:15;;;;;;;6.35;1.05;;;;;;;4.60;100.00;100353.22;5121475;27;20035;-70
2021/04/05 09:28:57;;;;;;;16.40;2.90;;;;;;;4.59;100.00;100352.34;5118059;27;20099;-71
2021/04/05 09:32:00;;;;;;;17.80;2.70;;;;;;;4.61;100.00;100362.91;5118278;27;20092;-71
2021/04/05 09:34:49;;;;;;;7.40;1.80;;;;;;;4.71;100.00;100370.38;5118894;27;20028;-72
2021/04/05 09:37:21;;;;;;;27.15;2.28;;;;;;;4.70;98.98;100383.75;5124882;27;20034;-70
2021/04/05 09:40:21;;;;;;;21.58;1.90;;;;;;;4.69;99.67;100393.50;5114813;27;20028;-71
2021/04/05 09:43:05;;;;;;;11.07;2.30;;;;;;;4.63;98.05;100408.91;5114094;27;20019;-70
2021/04/05 09:45:39;;;;;;;16.45;3.38;;;;;;;4.49;98.53;100420.16;5120497;27;20028;-71
2021/04/05 09:48:23;;;;;;;15.02;2.03;;;;;;;4.55;98.61;100401.28;5111875;27;20042;-70
2021/04/05 09:51:32;;;;;;;10.43;2.30;;;;;;;4.45;95.83;100389.31;5107169;27;20043;-71
2021/04/05 09:54:08;;;;;;;22.88;2.53;;;;;;;4.44;97.15;100409.69;5102517;27;20034;-71
2021/04/05 09:56:41;;;;;;;22.35;2.80;;;;;;;4.55;98.19;100411.91;5107223;27;20078;-71
2021/04/05 09:59:10;;;;;;;18.55;1.73;;;;;;;4.44;98.50;100427.47;5106825;27;20035;-71
2021/04/05 10:01:37;;;;;;;10.75;1.73;;;;;;;4.43;98.13;100428.38;5102257;28;20559;-71
2021/04/05 10:04:07;;;;;;;19.35;2.00;;;;;;;4.41;96.13;100424.94;5104492;27;20020;-71
2021/04/05 10:06:35;;;;;;;16.00;2.22;;;;;;;4.46;96.68;100423.78;5097755;28;20042;-71
2021/04/05 10:09:03;;;;;;;13.20;1.70;;;;;;;4.52;97.02;100425.31;5107098;28;20043;-70
2021/04/05 10:11:32;;;;;;;13.35;1.73;;;;;;;4.61;96.82;100427.56;5095613;28;20559;-72
2021/04/05 10:14:05;;;;;;;20.27;2.35;;;;;;;4.75;97.27;100435.78;5104806;28;20428;-70
2021/04/05 10:16:35;;;;;;;13.20;2.03;;;;;;;4.68;94.26;100429.03;5096966;28;20040;-70
2021/04/05 10:19:09;;;;;;;14.57;1.73;;;;;;;4.89;95.58;100440.47;5109597;27;20031;-72
2021/04/05 10:21:51;;;;;;;16.33;3.05;;;;;;;4.99;94.54;100447.13;5102946;28;20496;-71
2021/04/05 10:24:24;;;;;;;29.45;4.03;;;;;;;5.16;94.79;100430.38;5107012;28;20192;-71
2021/04/05 10:26:52;;;;;;;;;;;;;;;5.31;96.27;100437.63;5105752;28;20464;-72
2021/04/05 10:29:19;;;;;;;15.90;2.10;;;;;;;5.28;93.77;100437.78;5111665;27;19957;-71
2021/04/05 10:31:48;;;;;;;14.70;2.00;;;;;;;5.35;92.13;100428.56;5098636;27;20122;-71
2021/04/05 10:34:16;;;;;;;15.70;2.35;;;;;;;5.48;91.62;100423.53;5109030;28;20031;-71
2021/04/05 10:36:49;;;;;;;10.90;2.00;;;;;;;5.64;91.18;100417.38;5095843;27;20040;-71
2021/04/05 10:39:15;;;;;;;22.55;4.65;;;;;;;5.63;90.22;100415.66;5103260;28;20036;-71
2021/04/05 10:41:58;;;;;;;14.50;2.35;;;;;;;5.84;89.71;100424.41;5107352;27;20089;-71
2021/04/05 10:44:27;;;;;;;11.10;1.70;;;;;;;5.88;87.90;100430.47;5106786;27;20030;-71
2021/04/05 10:47:01;;;;;;;12.73;1.58;;;;;;;5.78;87.18;100443.34;5109674;27;20027;-72
2021/04/05 10:49:31;;;;;;;11.75;1.75;;;;;;;5.61;82.61;100454.81;5101454;27;20089;-70
2021/04/05 10:52:15;;;;;;;6.22;1.10;;;;;;;5.13;89.71;100476.59;5105781;27;20106;-70
2021/04/05 10:54:43;;;;;;;5.18;1.08;;;;;;;4.38;88.02;100510.09;5105380;27;20032;-70
2021/04/05 10:57:16;;;;;;;6.35;0.75;;;;;;;3.70;88.40;100535.00;5107229;27;20407;-71
2021/04/05 10:59:49;;;;;;;4.30;0.80;;;;;;;3.54;90.51;100541.81;5094233;27;20055;-72
2021/04/05 11:02:26;;;;;;;1.63;0.60;;;;;;;3.47;90.91;100532.34;5107874;27;20556;-70
2021/04/05 11:05:08;;;;;;;6.80;0.98;;;;;;;3.62;90.90;100518.50;5103812;27;20031;-71
2021/04/05 11:07:36;;;;;;;8.13;0.98;;;;;;;3.81;89.98;100513.34;5106762;27;20048;-70
2021/04/05 11:10:06;;;;;;;3.28;0.70;;;;;;;4.01;89.16;100511.59;5113171;27;20106;-71
2021/04/05 11:12:38;;;;;;;3.55;1.00;;;;;;;4.22;87.67;100514.31;5110261;27;20035;-71
2021/04/05 11:15:07;;;;;;;3.45;0.73;;;;;;;4.42;88.56;100525.84;5107890;27;20322;-70
2021/04/05 11:17:33;;;;;;;4.60;0.88;;;;;;;4.55;85.16;100534.16;5108542;27;20032;-71
2021/04/05 11:20:01;;;;;;;6.13;1.08;;;;;;;4.73;83.22;100527.19;5113072;27;20114;-70
2021/04/05 11:22:29;;;;;;;9.70;1.50;;;;;;;4.79;81.15;100533.09;5105910;27;20024;-70
2021/04/05 11:25:12;;;;;;;9.82;0.82;;;;;;;4.88;82.13;100527.38;5109127;27;20429;-70
2021/04/05 11:27:46;;;;;;;5.35;1.35;;;;;;;4.91;79.89;100536.16;5109512;27;20027;-70
2021/04/05 11:30:22;;;;;;;4.18;1.02;;;;;;;5.03;78.10;100532.94;5106016;27;20110;-71
2021/04/05 11:32:50;;;;;;;10.65;1.25;;;;;;;5.33;79.78;100523.59;5104670;27;20078;-71
2021/04/05 11:35:18;;;;;;;10.50;1.15;;;;;;;5.41;78.79;100532.09;5100674;27;20045;-70
2021/04/05 11:37:46;;;;;;;13.73;1.60;;;;;;;5.59;79.45;100535.69;5101805;27;20510;-71
2021/04/05 11:40:15;;;;;;;18.13;1.60;;;;;;;5.64;75.55;100523.88;5104431;28;20484;-72
2021/04/05 11:42:44;;;;;;;3.75;1.00;;;;;;;5.66;78.96;100532.69;5106420;28;20055;-71
2021/04/05 11:45:14;;;;;;;8.57;1.42;;;;;;;5.79;77.01;100526.75;5101871;28;20031;-71
2021/04/05 11:47:49;;;;;;;20.00;4.68;;;;;;;5.92;74.80;100534.13;5105160;27;20126;-70
2021/04/05 11:50:21;;;;;;;12.77;4.25;;;;;;;6.01;73.86;100538.13;5103326;28;20039;-71
2021/04/05 11:52:49;;;;;;;6.68;0.98;;;;;;;6.08;72.70;100539.56;5104323;27;20437;-70